sensor_id;sensor_type;location;lat;lon;timestamp;temperature;humidity
43015;DHT22;28637;50.554;7.032;2024-03-08T00:04:38;4.50;99.90
43015;DHT22;28637;50.554;7.032;2024-03-08T00:09:38;4.40;99.90
43015;DHT22;28637;50.554;7.032;2024-03-08T00:14:39;4.30;99.90
43015;DHT22;28637;50.554;7.032;2024-03-08T00:19:40;4.20;99.90
43015;DHT22;28637;50.554;7.032;2024-03-08T00:24:42;4.10;99.90
43015;DHT22;28637;50.554;7.032;2024-03-08T00:29:42;4.00;99.90
43015;DHT22;28637;50.554;7.032;2024-03-08T00:34:43;3.90;99.90
43015;DHT22;28637;50.554;7.032;2024-03-08T00:39:44;3.80;99.90
43015;DHT22;28637;50.554;7.032;2024-03-08T00:44:45;3.70;99.90
43015;DHT22;28637;50.554;7.032;2024-03-08T00:49:45;3.50;99.90
43015;DHT22;28637;50.554;7.032;2024-03-08T00:54:46;3.20;99.90
43015;DHT22;28637;50.554;7.032;2024-03-08T00:59:47;3.00;99.90
43015;DHT22;28637;50.554;7.032;2024-03-08T01:04:49;2.90;99.90
43015;DHT22;28637;50.554;7.032;2024-03-08T01:09:49;2.80;99.90
43015;DHT22;28637;50.554;7.032;2024-03-08T01:14:50;2.60;99.90
43015;DHT22;28637;50.554;7.032;2024-03-08T01:19:50;2.50;99.90
43015;DHT22;28637;50.554;7.032;2024-03-08T01:24:51;2.50;99.90
43015;DHT22;28637;50.554;7.032;2024-03-08T01:29:52;2.70;99.90
43015;DHT22;28637;50.554;7.032;2024-03-08T01:34:52;2.80;99.90
43015;DHT22;28637;50.554;7.032;2024-03-08T01:39:53;2.90;99.90
43015;DHT22;28637;50.554;7.032;2024-03-08T01:44:54;3.00;99.90
43015;DHT22;28637;50.554;7.032;2024-03-08T01:49:55;2.90;99.90
43015;DHT22;28637;50.554;7.032;2024-03-08T01:54:55;2.90;99.90
43015;DHT22;28637;50.554;7.032;2024-03-08T01:59:56;2.90;99.90
43015;DHT22;28637;50.554;7.032;2024-03-08T02:04:57;2.80;99.90
43015;DHT22;28637;50.554;7.032;2024-03-08T02:09:58;2.60;99.90
43015;DHT22;28637;50.554;7.032;2024-03-08T02:14:58;2.50;99.90
43015;DHT22;28637;50.554;7.032;2024-03-08T02:20:00;2.40;99.90
43015;DHT22;28637;50.554;7.032;2024-03-08T02:25:02;2.40;99.90
43015;DHT22;28637;50.554;7.032;2024-03-08T02:30:03;2.30;99.90
43015;DHT22;28637;50.554;7.032;2024-03-08T02:35:05;2.10;99.90
43015;DHT22;28637;50.554;7.032;2024-03-08T02:40:07;2.10;99.90
43015;DHT22;28637;50.554;7.032;2024-03-08T02:45:08;2.00;99.90
43015;DHT22;28637;50.554;7.032;2024-03-08T02:50:11;2.10;99.90
43015;DHT22;28637;50.554;7.032;2024-03-08T02:55:12;2.20;99.90
43015;DHT22;28637;50.554;7.032;2024-03-08T03:00:16;2.30;99.90
43015;DHT22;28637;50.554;7.032;2024-03-08T03:05:23;2.40;99.90
43015;DHT22;28637;50.554;7.032;2024-03-08T03:10:24;2.50;99.90
43015;DHT22;28637;50.554;7.032;2024-03-08T03:15:25;2.50;99.90
43015;DHT22;28637;50.554;7.032;2024-03-08T03:20:26;2.60;99.90
43015;DHT22;28637;50.554;7.032;2024-03-08T03:25:32;2.60;99.90
43015;DHT22;28637;50.554;7.032;2024-03-08T03:30:35;2.60;99.90
43015;DHT22;28637;50.554;7.032;2024-03-08T03:35:36;2.60;99.90
43015;DHT22;28637;50.554;7.032;2024-03-08T03:40:37;2.60;99.90
43015;DHT22;28637;50.554;7.032;2024-03-08T03:45:39;2.50;99.90
43015;DHT22;28637;50.554;7.032;2024-03-08T03:50:42;2.50;99.90
43015;DHT22;28637;50.554;7.032;2024-03-08T03:55:42;2.40;99.90
43015;DHT22;28637;50.554;7.032;2024-03-08T04:00:43;2.30;99.90
43015;DHT22;28637;50.554;7.032;2024-03-08T04:05:43;2.30;99.90
43015;DHT22;28637;50.554;7.032;2024-03-08T04:10:44;2.10;99.90
43015;DHT22;28637;50.554;7.032;2024-03-08T04:15:45;1.90;99.90
43015;DHT22;28637;50.554;7.032;2024-03-08T04:20:45;1.80;99.90
43015;DHT22;28637;50.554;7.032;2024-03-08T04:25:46;1.90;99.90
43015;DHT22;28637;50.554;7.032;2024-03-08T04:30:47;1.90;99.90
43015;DHT22;28637;50.554;7.032;2024-03-08T04:35:48;1.90;99.90
43015;DHT22;28637;50.554;7.032;2024-03-08T04:40:49;1.90;99.90
43015;DHT22;28637;50.554;7.032;2024-03-08T04:45:50;1.90;99.90
43015;DHT22;28637;50.554;7.032;2024-03-08T04:50:51;1.80;99.90
43015;DHT22;28637;50.554;7.032;2024-03-08T04:55:51;1.70;99.90
43015;DHT22;28637;50.554;7.032;2024-03-08T05:00:52;1.60;99.90
43015;DHT22;28637;50.554;7.032;2024-03-08T05:05:52;1.60;99.90
43015;DHT22;28637;50.554;7.032;2024-03-08T05:10:54;1.60;99.90
43015;DHT22;28637;50.554;7.032;2024-03-08T05:15:54;1.60;99.90
43015;DHT22;28637;50.554;7.032;2024-03-08T05:20:58;1.60;99.90
43015;DHT22;28637;50.554;7.032;2024-03-08T05:25:59;1.70;99.90
43015;DHT22;28637;50.554;7.032;2024-03-08T05:31:00;1.60;99.90
43015;DHT22;28637;50.554;7.032;2024-03-08T05:36:01;1.70;99.90
43015;DHT22;28637;50.554;7.032;2024-03-08T05:41:02;1.70;99.90
43015;DHT22;28637;50.554;7.032;2024-03-08T05:46:03;1.60;99.90
43015;DHT22;28637;50.554;7.032;2024-03-08T05:51:05;1.40;99.90
43015;DHT22;28637;50.554;7.032;2024-03-08T05:56:06;1.40;99.90
43015;DHT22;28637;50.554;7.032;2024-03-08T06:01:07;1.30;99.90
43015;DHT22;28637;50.554;7.032;2024-03-08T06:06:08;1.40;99.90
43015;DHT22;28637;50.554;7.032;2024-03-08T06:11:09;1.50;99.90
43015;DHT22;28637;50.554;7.032;2024-03-08T06:16:10;1.50;99.90
43015;DHT22;28637;50.554;7.032;2024-03-08T06:21:11;1.60;99.90
43015;DHT22;28637;50.554;7.032;2024-03-08T06:26:12;1.70;99.90
43015;DHT22;28637;50.554;7.032;2024-03-08T06:31:13;1.80;99.90
43015;DHT22;28637;50.554;7.032;2024-03-08T06:36:18;1.80;99.90
43015;DHT22;28637;50.554;7.032;2024-03-08T06:41:24;1.90;99.90
43015;DHT22;28637;50.554;7.032;2024-03-08T06:46:25;2.00;99.90
43015;DHT22;28637;50.554;7.032;2024-03-08T06:51:25;2.10;99.90
43015;DHT22;28637;50.554;7.032;2024-03-08T06:56:26;2.30;99.90
43015;DHT22;28637;50.554;7.032;2024-03-08T07:01:27;2.30;99.90
43015;DHT22;28637;50.554;7.032;2024-03-08T07:06:28;2.40;99.90
43015;DHT22;28637;50.554;7.032;2024-03-08T07:11:29;2.50;99.90
43015;DHT22;28637;50.554;7.032;2024-03-08T07:16:29;2.60;99.90
43015;DHT22;28637;50.554;7.032;2024-03-08T07:21:30;2.70;99.90
43015;DHT22;28637;50.554;7.032;2024-03-08T07:26:31;2.80;99.90
43015;DHT22;28637;50.554;7.032;2024-03-08T07:31:32;3.00;99.90
43015;DHT22;28637;50.554;7.032;2024-03-08T07:36:42;3.10;99.90
43015;DHT22;28637;50.554;7.032;2024-03-08T07:41:43;3.20;99.90
43015;DHT22;28637;50.554;7.032;2024-03-08T07:52:41;3.30;99.90
43015;DHT22;28637;50.554;7.032;2024-03-08T07:57:42;3.50;99.90
43015;DHT22;28637;50.554;7.032;2024-03-08T08:02:44;3.60;99.90
43015;DHT22;28637;50.554;7.032;2024-03-08T08:07:46;3.60;99.90
43015;DHT22;28637;50.554;7.032;2024-03-08T08:12:47;3.80;99.90
43015;DHT22;28637;50.554;7.032;2024-03-08T08:17:48;3.90;99.90
43015;DHT22;28637;50.554;7.032;2024-03-08T08:22:50;4.10;99.90
43015;DHT22;28637;50.554;7.032;2024-03-08T08:27:50;4.20;99.90
43015;DHT22;28637;50.554;7.032;2024-03-08T08:32:51;4.40;99.90
43015;DHT22;28637;50.554;7.032;2024-03-08T08:37:52;4.60;99.90
43015;DHT22;28637;50.554;7.032;2024-03-08T08:42:53;4.90;99.90
43015;DHT22;28637;50.554;7.032;2024-03-08T08:47:53;5.10;99.90
43015;DHT22;28637;50.554;7.032;2024-03-08T08:52:55;5.40;99.90
43015;DHT22;28637;50.554;7.032;2024-03-08T08:57:56;5.70;99.90
43015;DHT22;28637;50.554;7.032;2024-03-08T09:02:57;5.80;99.90
43015;DHT22;28637;50.554;7.032;2024-03-08T09:07:58;6.00;99.90
43015;DHT22;28637;50.554;7.032;2024-03-08T09:12:59;6.20;99.90
43015;DHT22;28637;50.554;7.032;2024-03-08T09:17:59;6.40;99.90
43015;DHT22;28637;50.554;7.032;2024-03-08T09:23:00;6.60;99.90
43015;DHT22;28637;50.554;7.032;2024-03-08T09:28:01;6.90;99.90
43015;DHT22;28637;50.554;7.032;2024-03-08T09:33:01;7.00;99.90
43015;DHT22;28637;50.554;7.032;2024-03-08T09:38:02;7.40;99.90
43015;DHT22;28637;50.554;7.032;2024-03-08T09:43:05;7.60;99.90
43015;DHT22;28637;50.554;7.032;2024-03-08T09:48:10;7.90;99.90
43015;DHT22;28637;50.554;7.032;2024-03-08T09:53:14;8.10;99.90
43015;DHT22;28637;50.554;7.032;2024-03-08T09:58:16;8.40;99.90
43015;DHT22;28637;50.554;7.032;2024-03-08T10:03:36;8.70;99.90
43015;DHT22;28637;50.554;7.032;2024-03-08T10:08:37;9.00;99.90
43015;DHT22;28637;50.554;7.032;2024-03-08T10:13:38;9.20;99.90
43015;DHT22;28637;50.554;7.032;2024-03-08T10:18:40;9.40;99.90
43015;DHT22;28637;50.554;7.032;2024-03-08T10:23:42;9.60;99.90
43015;DHT22;28637;50.554;7.032;2024-03-08T10:28:47;9.70;99.90
43015;DHT22;28637;50.554;7.032;2024-03-08T10:33:48;9.90;99.90
43015;DHT22;28637;50.554;7.032;2024-03-08T10:38:51;10.00;99.90
43015;DHT22;28637;50.554;7.032;2024-03-08T10:49:16;10.10;99.90
43015;DHT22;28637;50.554;7.032;2024-03-08T10:54:19;10.40;99.90
43015;DHT22;28637;50.554;7.032;2024-03-08T10:59:22;10.60;99.90
43015;DHT22;28637;50.554;7.032;2024-03-08T11:04:23;10.90;99.90
43015;DHT22;28637;50.554;7.032;2024-03-08T11:09:36;11.10;99.90
43015;DHT22;28637;50.554;7.032;2024-03-08T11:14:46;11.50;99.90
43015;DHT22;28637;50.554;7.032;2024-03-08T11:19:49;11.80;99.90
43015;DHT22;28637;50.554;7.032;2024-03-08T11:24:52;11.90;98.80
43015;DHT22;28637;50.554;7.032;2024-03-08T11:30:21;11.90;99.00
43015;DHT22;28637;50.554;7.032;2024-03-08T11:35:24;11.80;97.60
43015;DHT22;28637;50.554;7.032;2024-03-08T11:40:25;11.90;97.90
43015;DHT22;28637;50.554;7.032;2024-03-08T11:45:26;12.20;97.50
43015;DHT22;28637;50.554;7.032;2024-03-08T11:50:28;12.30;96.10
43015;DHT22;28637;50.554;7.032;2024-03-08T11:55:28;12.50;95.90
43015;DHT22;28637;50.554;7.032;2024-03-08T12:00:29;12.80;95.50
43015;DHT22;28637;50.554;7.032;2024-03-08T12:05:35;13.10;95.40
43015;DHT22;28637;50.554;7.032;2024-03-08T12:10:36;13.50;94.50
43015;DHT22;28637;50.554;7.032;2024-03-08T12:15:39;13.70;93.80
43015;DHT22;28637;50.554;7.032;2024-03-08T12:20:39;14.00;93.20
43015;DHT22;28637;50.554;7.032;2024-03-08T12:25:44;14.20;92.40
43015;DHT22;28637;50.554;7.032;2024-03-08T12:30:51;14.40;92.50
43015;DHT22;28637;50.554;7.032;2024-03-08T12:35:57;14.70;90.60
43015;DHT22;28637;50.554;7.032;2024-03-08T12:40:59;14.90;91.30
43015;DHT22;28637;50.554;7.032;2024-03-08T12:46:00;15.20;90.90
43015;DHT22;28637;50.554;7.032;2024-03-08T12:51:01;15.40;90.00
43015;DHT22;28637;50.554;7.032;2024-03-08T12:56:02;15.70;90.00
43015;DHT22;28637;50.554;7.032;2024-03-08T13:01:05;15.90;89.20
43015;DHT22;28637;50.554;7.032;2024-03-08T13:06:08;16.20;87.60
43015;DHT22;28637;50.554;7.032;2024-03-08T13:11:08;16.60;85.10
43015;DHT22;28637;50.554;7.032;2024-03-08T13:16:12;16.80;84.10
43015;DHT22;28637;50.554;7.032;2024-03-08T13:21:15;16.80;84.30
43015;DHT22;28637;50.554;7.032;2024-03-08T13:26:19;17.40;82.80
43015;DHT22;28637;50.554;7.032;2024-03-08T13:31:20;17.70;80.50
43015;DHT22;28637;50.554;7.032;2024-03-08T13:36:21;17.80;79.10
43015;DHT22;28637;50.554;7.032;2024-03-08T13:41:22;18.00;79.00
43015;DHT22;28637;50.554;7.032;2024-03-08T13:46:25;18.00;77.10
43015;DHT22;28637;50.554;7.032;2024-03-08T13:51:26;17.90;76.60
43015;DHT22;28637;50.554;7.032;2024-03-08T13:56:28;17.60;77.20
43015;DHT22;28637;50.554;7.032;2024-03-08T14:01:32;17.70;76.30
43015;DHT22;28637;50.554;7.032;2024-03-08T14:06:32;17.70;74.80
43015;DHT22;28637;50.554;7.032;2024-03-08T14:11:33;17.90;75.10
43015;DHT22;28637;50.554;7.032;2024-03-08T14:16:33;18.10;75.70
43015;DHT22;28637;50.554;7.032;2024-03-08T14:21:36;18.40;74.90
43015;DHT22;28637;50.554;7.032;2024-03-08T14:26:40;18.90;72.60
43015;DHT22;28637;50.554;7.032;2024-03-08T14:31:41;19.10;71.80
43015;DHT22;28637;50.554;7.032;2024-03-08T14:36:43;18.80;71.20
43015;DHT22;28637;50.554;7.032;2024-03-08T14:41:44;19.30;72.00
43015;DHT22;28637;50.554;7.032;2024-03-08T14:46:45;19.60;69.20
43015;DHT22;28637;50.554;7.032;2024-03-08T14:51:46;19.30;70.00
43015;DHT22;28637;50.554;7.032;2024-03-08T14:56:47;19.50;69.20
43015;DHT22;28637;50.554;7.032;2024-03-08T15:01:48;20.00;69.40
43015;DHT22;28637;50.554;7.032;2024-03-08T15:06:49;20.80;69.40
43015;DHT22;28637;50.554;7.032;2024-03-08T15:11:49;21.40;66.00
43015;DHT22;28637;50.554;7.032;2024-03-08T15:16:50;22.20;63.90
43015;DHT22;28637;50.554;7.032;2024-03-08T15:21:51;24.50;60.70
43015;DHT22;28637;50.554;7.032;2024-03-08T15:26:55;26.10;57.50
43015;DHT22;28637;50.554;7.032;2024-03-08T15:31:57;26.80;55.40
43015;DHT22;28637;50.554;7.032;2024-03-08T15:36:58;26.40;53.10
43015;DHT22;28637;50.554;7.032;2024-03-08T15:42:02;26.50;52.50
43015;DHT22;28637;50.554;7.032;2024-03-08T15:47:03;26.60;51.60
43015;DHT22;28637;50.554;7.032;2024-03-08T15:52:04;26.40;51.60
43015;DHT22;28637;50.554;7.032;2024-03-08T15:57:06;26.30;51.10
43015;DHT22;28637;50.554;7.032;2024-03-08T16:02:13;26.20;50.50
43015;DHT22;28637;50.554;7.032;2024-03-08T16:07:14;25.80;50.50
43015;DHT22;28637;50.554;7.032;2024-03-08T16:12:16;25.70;50.90
43015;DHT22;28637;50.554;7.032;2024-03-08T16:17:16;25.80;50.60
43015;DHT22;28637;50.554;7.032;2024-03-08T16:22:17;24.80;50.50
43015;DHT22;28637;50.554;7.032;2024-03-08T16:27:18;24.10;51.30
43015;DHT22;28637;50.554;7.032;2024-03-08T16:32:20;23.40;51.90
43015;DHT22;28637;50.554;7.032;2024-03-08T16:37:21;22.50;52.90
43015;DHT22;28637;50.554;7.032;2024-03-08T16:42:23;21.00;54.00
43015;DHT22;28637;50.554;7.032;2024-03-08T16:47:24;18.00;57.70
43015;DHT22;28637;50.554;7.032;2024-03-08T16:52:25;16.00;61.10
43015;DHT22;28637;50.554;7.032;2024-03-08T16:57:26;14.80;63.70
43015;DHT22;28637;50.554;7.032;2024-03-08T17:02:29;14.10;65.20
43015;DHT22;28637;50.554;7.032;2024-03-08T17:07:30;13.40;67.10
43015;DHT22;28637;50.554;7.032;2024-03-08T17:12:32;12.70;68.80
43015;DHT22;28637;50.554;7.032;2024-03-08T17:17:34;12.10;70.70
43015;DHT22;28637;50.554;7.032;2024-03-08T17:22:35;11.60;72.20
43015;DHT22;28637;50.554;7.032;2024-03-08T17:27:36;11.30;73.20
43015;DHT22;28637;50.554;7.032;2024-03-08T17:32:36;10.90;74.30
43015;DHT22;28637;50.554;7.032;2024-03-08T17:37:38;10.60;76.10
43015;DHT22;28637;50.554;7.032;2024-03-08T17:42:39;10.30;77.30
43015;DHT22;28637;50.554;7.032;2024-03-08T17:47:41;10.10;78.70
43015;DHT22;28637;50.554;7.032;2024-03-08T17:52:42;9.90;79.60
43015;DHT22;28637;50.554;7.032;2024-03-08T17:57:47;9.70;80.90
43015;DHT22;28637;50.554;7.032;2024-03-08T18:02:52;9.60;81.80
43015;DHT22;28637;50.554;7.032;2024-03-08T18:07:53;9.40;82.80
43015;DHT22;28637;50.554;7.032;2024-03-08T18:12:55;9.30;84.10
43015;DHT22;28637;50.554;7.032;2024-03-08T18:18:00;9.20;84.70
43015;DHT22;28637;50.554;7.032;2024-03-08T18:23:04;9.10;85.80
43015;DHT22;28637;50.554;7.032;2024-03-08T18:28:05;9.00;87.40
43015;DHT22;28637;50.554;7.032;2024-03-08T18:33:07;8.80;88.40
43015;DHT22;28637;50.554;7.032;2024-03-08T18:38:09;8.70;89.20
43015;DHT22;28637;50.554;7.032;2024-03-08T18:43:09;8.60;90.00
43015;DHT22;28637;50.554;7.032;2024-03-08T18:48:10;8.60;90.50
43015;DHT22;28637;50.554;7.032;2024-03-08T18:53:11;8.50;90.70
43015;DHT22;28637;50.554;7.032;2024-03-08T18:58:13;8.40;91.20
43015;DHT22;28637;50.554;7.032;2024-03-08T19:03:16;8.40;91.30
43015;DHT22;28637;50.554;7.032;2024-03-08T19:08:17;8.30;91.50
43015;DHT22;28637;50.554;7.032;2024-03-08T19:13:19;8.30;91.80
43015;DHT22;28637;50.554;7.032;2024-03-08T19:18:21;8.30;92.10
43015;DHT22;28637;50.554;7.032;2024-03-08T19:23:21;8.20;92.40
43015;DHT22;28637;50.554;7.032;2024-03-08T19:28:23;8.20;92.50
43015;DHT22;28637;50.554;7.032;2024-03-08T19:33:24;8.20;92.70
43015;DHT22;28637;50.554;7.032;2024-03-08T19:38:25;8.20;92.80
43015;DHT22;28637;50.554;7.032;2024-03-08T19:43:27;8.10;92.90
43015;DHT22;28637;50.554;7.032;2024-03-08T19:48:28;8.10;93.20
43015;DHT22;28637;50.554;7.032;2024-03-08T19:53:29;8.10;93.40
43015;DHT22;28637;50.554;7.032;2024-03-08T19:58:29;8.00;93.60
43015;DHT22;28637;50.554;7.032;2024-03-08T20:03:30;7.90;93.70
43015;DHT22;28637;50.554;7.032;2024-03-08T20:08:31;7.90;94.00
43015;DHT22;28637;50.554;7.032;2024-03-08T20:13:32;7.90;94.10
43015;DHT22;28637;50.554;7.032;2024-03-08T20:18:34;7.90;94.30
43015;DHT22;28637;50.554;7.032;2024-03-08T20:23:35;7.80;94.40
43015;DHT22;28637;50.554;7.032;2024-03-08T20:28:36;7.80;94.60
43015;DHT22;28637;50.554;7.032;2024-03-08T20:33:38;7.70;94.70
43015;DHT22;28637;50.554;7.032;2024-03-08T20:38:42;7.70;94.80
43015;DHT22;28637;50.554;7.032;2024-03-08T20:43:43;7.60;94.90
43015;DHT22;28637;50.554;7.032;2024-03-08T20:48:44;7.60;94.90
43015;DHT22;28637;50.554;7.032;2024-03-08T20:53:46;7.60;95.30
43015;DHT22;28637;50.554;7.032;2024-03-08T20:58:47;7.50;95.10
43015;DHT22;28637;50.554;7.032;2024-03-08T21:03:48;7.50;95.30
43015;DHT22;28637;50.554;7.032;2024-03-08T21:08:49;7.40;95.40
43015;DHT22;28637;50.554;7.032;2024-03-08T21:13:50;7.30;95.60
43015;DHT22;28637;50.554;7.032;2024-03-08T21:18:52;7.30;95.80
43015;DHT22;28637;50.554;7.032;2024-03-08T21:23:55;7.30;96.10
43015;DHT22;28637;50.554;7.032;2024-03-08T21:28:55;7.20;96.20
43015;DHT22;28637;50.554;7.032;2024-03-08T21:33:56;7.20;96.20
43015;DHT22;28637;50.554;7.032;2024-03-08T21:38:57;7.20;96.40
43015;DHT22;28637;50.554;7.032;2024-03-08T21:43:57;7.10;96.50
43015;DHT22;28637;50.554;7.032;2024-03-08T21:48:58;7.20;96.60
43015;DHT22;28637;50.554;7.032;2024-03-08T21:54:00;7.20;96.60
43015;DHT22;28637;50.554;7.032;2024-03-08T21:59:01;7.20;96.70
43015;DHT22;28637;50.554;7.032;2024-03-08T22:04:04;7.30;96.80
43015;DHT22;28637;50.554;7.032;2024-03-08T22:09:05;7.30;96.80
43015;DHT22;28637;50.554;7.032;2024-03-08T22:14:06;7.30;96.90
43015;DHT22;28637;50.554;7.032;2024-03-08T22:19:08;7.40;97.00
43015;DHT22;28637;50.554;7.032;2024-03-08T22:24:11;7.40;97.10
43015;DHT22;28637;50.554;7.032;2024-03-08T22:29:12;7.40;97.20
43015;DHT22;28637;50.554;7.032;2024-03-08T22:34:12;7.30;97.30
43015;DHT22;28637;50.554;7.032;2024-03-08T22:39:13;7.30;97.30
43015;DHT22;28637;50.554;7.032;2024-03-08T22:44:14;7.30;97.50
43015;DHT22;28637;50.554;7.032;2024-03-08T22:49:15;7.20;97.80
43015;DHT22;28637;50.554;7.032;2024-03-08T22:54:15;7.20;97.90
43015;DHT22;28637;50.554;7.032;2024-03-08T22:59:18;7.10;98.00
43015;DHT22;28637;50.554;7.032;2024-03-08T23:04:23;7.10;98.10
43015;DHT22;28637;50.554;7.032;2024-03-08T23:09:24;7.00;98.30
43015;DHT22;28637;50.554;7.032;2024-03-08T23:14:24;7.00;98.40
43015;DHT22;28637;50.554;7.032;2024-03-08T23:19:26;7.00;98.60
43015;DHT22;28637;50.554;7.032;2024-03-08T23:24:30;6.90;98.70
43015;DHT22;28637;50.554;7.032;2024-03-08T23:29:31;7.00;98.80
43015;DHT22;28637;50.554;7.032;2024-03-08T23:34:33;6.90;99.10
43015;DHT22;28637;50.554;7.032;2024-03-08T23:39:34;6.90;99.30
43015;DHT22;28637;50.554;7.032;2024-03-08T23:44:36;6.90;99.40
43015;DHT22;28637;50.554;7.032;2024-03-08T23:49:37;7.00;99.50
43015;DHT22;28637;50.554;7.032;2024-03-08T23:54:38;6.80;99.90
43015;DHT22;28637;50.554;7.032;2024-03-08T23:59:40;6.60;99.90
